createdAt,value
2023-03-17T00:00:51.573Z,100044.91
2023-03-17T00:03:24.614Z,100064.09
2023-03-17T00:05:50.887Z,100069.25
2023-03-17T00:08:23.876Z,100093.59
2023-03-17T00:10:50.299Z,100083.84
2023-03-17T00:13:16.623Z,100132.63
2023-03-17T00:15:43.084Z,100168.66
2023-03-17T00:18:16.311Z,100168.25
2023-03-17T00:20:42.699Z,100173.25
2023-03-17T00:23:11.827Z,100202.31
2023-03-17T00:25:38.036Z,100233.81
2023-03-17T00:28:16.358Z,100259.31
2023-03-17T00:30:42.580Z,100275.41
2023-03-17T00:33:09.274Z,100280.19
2023-03-17T00:35:35.496Z,100323.75
2023-03-17T00:38:01.876Z,100298.50
2023-03-17T00:40:29.092Z,100339.84
2023-03-17T00:42:55.518Z,100323.84
2023-03-17T00:45:21.988Z,100326.50
2023-03-17T00:47:48.293Z,100353.56
2023-03-17T00:50:15.798Z,100346.00
2023-03-17T00:52:42.475Z,100356.34
2023-03-17T00:55:08.840Z,100331.09
2023-03-17T00:57:35.992Z,100334.28
2023-03-17T01:00:02.315Z,100349.19
2023-03-17T01:02:28.606Z,100358.78
2023-03-17T01:05:05.539Z,100380.06
2023-03-17T01:07:32.167Z,100406.88
2023-03-17T01:09:58.381Z,100399.34
2023-03-17T01:12:24.584Z,100402.72
2023-03-17T01:14:50.811Z,100407.50
2023-03-17T01:17:17.176Z,100432.16
2023-03-17T01:19:43.779Z,100474.50
2023-03-17T01:22:10.062Z,100453.22
2023-03-17T01:24:36.269Z,100473.13
2023-03-17T01:27:02.482Z,100505.50
2023-03-17T01:29:28.708Z,100525.75
2023-03-17T01:31:54.973Z,100528.38
2023-03-17T01:34:21.182Z,100585.00
2023-03-17T01:36:47.380Z,100550.63
2023-03-17T01:39:13.576Z,100545.03
2023-03-17T01:41:39.780Z,100539.28
2023-03-17T01:44:06.010Z,100554.19
2023-03-17T01:46:32.669Z,100570.47
2023-03-17T01:49:01.712Z,100557.16
2023-03-17T01:51:42.732Z,100547.59
2023-03-17T01:54:13.937Z,100518.78
2023-03-17T01:56:40.640Z,100508.09
2023-03-17T01:59:07.386Z,100496.19
2023-03-17T02:01:35.682Z,100492.78
2023-03-17T02:04:01.915Z,100521.00
2023-03-17T02:06:28.160Z,100488.63
2023-03-17T02:08:54.386Z,100459.19
2023-03-17T02:11:20.597Z,100469.31
2023-03-17T02:13:46.816Z,100518.78
2023-03-17T02:16:13.733Z,100522.19
2023-03-17T02:18:39.978Z,100500.94
2023-03-17T02:21:25.085Z,100477.88
2023-03-17T02:23:51.324Z,100449.44
2023-03-17T02:26:17.527Z,100406.91
2023-03-17T02:28:43.744Z,100366.94
2023-03-17T02:31:09.982Z,100353.03
2023-03-17T02:33:36.223Z,100383.66
2023-03-17T02:36:02.454Z,100388.03
2023-03-17T02:38:28.745Z,100366.75
2023-03-17T02:40:54.960Z,100378.66
2023-03-17T02:43:21.162Z,100371.91
2023-03-17T02:45:47.405Z,100358.59
2023-03-17T02:48:13.784Z,100355.81
2023-03-17T02:50:40.016Z,100349.47
2023-03-17T02:53:06.216Z,100369.31
2023-03-17T02:55:32.422Z,100366.34
2023-03-17T02:57:58.616Z,100327.56
2023-03-17T03:00:24.838Z,100327.38
2023-03-17T03:02:51.063Z,100320.22
2023-03-17T03:05:17.326Z,100319.81
2023-03-17T03:07:43.533Z,100325.41
2023-03-17T03:10:10.048Z,100335.91
2023-03-17T03:12:36.275Z,100306.09
2023-03-17T03:15:02.492Z,100325.59
2023-03-17T03:17:28.701Z,100328.59
2023-03-17T03:19:54.929Z,100354.47
2023-03-17T03:22:21.144Z,100369.16
2023-03-17T03:24:47.356Z,100364.00
2023-03-17T03:27:13.565Z,100357.03
2023-03-17T03:29:39.778Z,100347.72
2023-03-17T03:32:06.148Z,100351.09
2023-03-17T03:34:32.364Z,100353.88
2023-03-17T03:36:58.563Z,100353.06
2023-03-17T03:39:24.788Z,100347.28
2023-03-17T03:41:51.008Z,100349.09
2023-03-17T03:44:17.227Z,100344.72
2023-03-17T03:46:43.462Z,100320.88
2023-03-17T03:49:09.690Z,100327.25
2023-03-17T03:51:35.898Z,100319.91
2023-03-17T03:54:02.108Z,100334.00
2023-03-17T03:56:28.330Z,100316.28
2023-03-17T03:58:54.535Z,100306.34
2023-03-17T04:01:20.754Z,100300.19
2023-03-17T04:03:46.983Z,100294.59
2023-03-17T04:06:13.202Z,100291.06
2023-03-17T04:08:39.399Z,100290.06
2023-03-17T04:11:05.613Z,100303.19
2023-03-17T04:13:31.807Z,100306.38
2023-03-17T04:15:58.014Z,100305.78
2023-03-17T04:18:24.232Z,100291.44
2023-03-17T04:20:50.458Z,100268.59
2023-03-17T04:23:18.354Z,100277.94
2023-03-17T04:25:44.570Z,100252.31
2023-03-17T04:28:10.785Z,100229.06
2023-03-17T04:30:37.010Z,100245.56
2023-03-17T04:33:03.269Z,100279.53
2023-03-17T04:35:29.529Z,100274.59
2023-03-17T04:37:55.749Z,100281.13
2023-03-17T04:40:21.975Z,100278.34
2023-03-17T04:42:48.199Z,100263.44
2023-03-17T04:45:14.506Z,100258.47
2023-03-17T04:47:40.780Z,100236.38
2023-03-17T04:50:07.068Z,100208.00
2023-03-17T04:52:33.407Z,100217.56
2023-03-17T04:54:59.623Z,100240.41
2023-03-17T04:57:25.883Z,100245.78
2023-03-17T04:59:52.095Z,100229.91
2023-03-17T05:02:18.357Z,100248.34
2023-03-17T05:04:44.962Z,100251.72
2023-03-17T05:07:11.722Z,100262.84
2023-03-17T05:09:37.943Z,100241.41
2023-03-17T05:12:04.273Z,100239.81
2023-03-17T05:14:30.471Z,100260.47
2023-03-17T05:16:56.721Z,100254.56
2023-03-17T05:19:23.002Z,100251.56
2023-03-17T05:21:49.223Z,100227.69
2023-03-17T05:24:15.434Z,100261.28
2023-03-17T05:26:41.661Z,100282.78
2023-03-17T05:29:07.894Z,100262.16
2023-03-17T05:31:34.142Z,100251.81
2023-03-17T05:34:00.334Z,100221.16
2023-03-17T05:36:26.576Z,100176.88
2023-03-17T05:38:52.787Z,100157.84
2023-03-17T05:41:19.262Z,100176.13
2023-03-17T05:43:45.484Z,100181.31
2023-03-17T05:46:11.724Z,100208.09
2023-03-17T05:48:37.957Z,100205.72
2023-03-17T05:51:04.239Z,100197.75
2023-03-17T05:53:30.449Z,100185.56
2023-03-17T05:55:56.665Z,100157.38
2023-03-17T05:58:22.887Z,100163.31
2023-03-17T06:00:49.102Z,100159.59
2023-03-17T06:03:15.347Z,100203.28
2023-03-17T06:05:41.583Z,100192.16
2023-03-17T06:08:07.795Z,100184.97
2023-03-17T06:10:34.019Z,100165.69
2023-03-17T06:13:01.575Z,100144.41
2023-03-17T06:15:29.844Z,100129.91
2023-03-17T06:17:59.236Z,100113.13
2023-03-17T06:20:25.460Z,100104.00
2023-03-17T06:23:03.321Z,100109.56
2023-03-17T06:25:30.724Z,100107.13
2023-03-17T06:27:57.039Z,100127.00
2023-03-17T06:30:23.252Z,100071.84
2023-03-17T06:32:49.565Z,100077.59
2023-03-17T06:35:15.836Z,100017.31
2023-03-17T06:37:42.055Z,99961.38
2023-03-17T06:40:08.596Z,99962.47
2023-03-17T06:42:34.828Z,99947.75
2023-03-17T06:45:01.043Z,99945.72
2023-03-17T06:47:27.258Z,99966.84
2023-03-17T06:49:53.500Z,99993.31
2023-03-17T06:52:19.722Z,99992.69
2023-03-17T06:54:45.919Z,99985.88
2023-03-17T06:57:12.156Z,99952.69
2023-03-17T06:59:38.378Z,99945.09
2023-03-17T07:02:04.637Z,99945.09
2023-03-17T07:04:30.917Z,99958.22
2023-03-17T07:06:57.131Z,99926.69
2023-03-17T07:09:23.362Z,99941.19
2023-03-17T07:11:49.582Z,99943.91
2023-03-17T07:14:15.786Z,99937.97
2023-03-17T07:16:42.045Z,99928.41
2023-03-17T07:19:08.294Z,99935.59
2023-03-17T07:21:34.507Z,99933.94
2023-03-17T07:24:00.719Z,99876.38
2023-03-17T07:26:26.939Z,99888.66
2023-03-17T07:28:53.158Z,99897.72
2023-03-17T07:31:19.376Z,99868.34
2023-03-17T07:33:45.695Z,99855.34
2023-03-17T07:36:11.971Z,99852.19
2023-03-17T07:38:38.209Z,99819.81
2023-03-17T07:41:04.499Z,99802.94
2023-03-17T07:43:30.758Z,99785.41
2023-03-17T07:45:57.000Z,99769.81
2023-03-17T07:48:23.249Z,99719.97
2023-03-17T07:50:49.462Z,99705.00
2023-03-17T07:53:15.685Z,99695.75
2023-03-17T07:55:41.895Z,99691.44
2023-03-17T07:58:08.315Z,99658.47
2023-03-17T08:00:35.082Z,99632.88
2023-03-17T08:03:09.864Z,99599.78
2023-03-17T08:05:36.739Z,99608.09
2023-03-17T08:08:02.971Z,99616.69
2023-03-17T08:10:29.665Z,99650.28
2023-03-17T08:12:56.151Z,99627.53
2023-03-17T08:15:22.359Z,99628.63
2023-03-17T08:17:48.573Z,99605.31
2023-03-17T08:20:14.774Z,99651.66
2023-03-17T08:22:41.157Z,99660.53
2023-03-17T08:25:07.548Z,99644.47
2023-03-17T08:27:34.070Z,99622.19
2023-03-17T08:30:00.393Z,99601.31
2023-03-17T08:32:26.685Z,99590.47
2023-03-17T08:34:53.538Z,99569.66
2023-03-17T08:37:19.871Z,99574.53
2023-03-17T08:39:46.078Z,99584.13
2023-03-17T08:42:12.285Z,99522.94
2023-03-17T08:44:38.490Z,99490.91
2023-03-17T08:47:04.704Z,99527.06
2023-03-17T08:49:31.103Z,99545.34
2023-03-17T08:51:57.395Z,99519.25
2023-03-17T08:54:23.602Z,99513.94
2023-03-17T08:56:49.866Z,99503.66
2023-03-17T08:59:17.068Z,99468.72
2023-03-17T09:01:43.364Z,99405.22
2023-03-17T09:04:09.603Z,99355.38
2023-03-17T09:06:35.832Z,99393.94
2023-03-17T09:09:02.058Z,99360.25
2023-03-17T09:11:28.545Z,99334.19
2023-03-17T09:13:54.771Z,99347.50
2023-03-17T09:16:21.036Z,99365.66
2023-03-17T09:18:47.305Z,99266.75
2023-03-17T09:21:13.672Z,99306.75
2023-03-17T09:23:39.984Z,99316.09
2023-03-17T09:26:06.227Z,99316.66
2023-03-17T09:28:32.438Z,99282.72
2023-03-17T09:30:59.050Z,99298.56
2023-03-17T09:33:25.300Z,99281.69
2023-03-17T09:35:51.817Z,99277.13
2023-03-17T09:38:18.039Z,99208.03
2023-03-17T09:41:07.277Z,99142.53
2023-03-17T09:43:36.753Z,99179.72
2023-03-17T09:46:07.653Z,99142.53
2023-03-17T09:48:43.650Z,99073.63
2023-03-17T09:51:13.076Z,99066.84
2023-03-17T09:53:47.544Z,99125.06
2023-03-17T09:56:14.181Z,99067.88
2023-03-17T09:58:40.579Z,99044.94
2023-03-17T10:01:08.522Z,98960.97
2023-03-17T10:03:34.755Z,99006.69
2023-03-17T10:06:15.792Z,99046.16
2023-03-17T10:08:47.706Z,98983.91
2023-03-17T10:11:30.135Z,98907.31
2023-03-17T10:13:58.115Z,98824.97
2023-03-17T10:16:30.643Z,98741.63
2023-03-17T10:18:58.115Z,98800.56
2023-03-17T10:21:28.733Z,98719.44
2023-03-17T10:23:54.988Z,98744.88
2023-03-17T10:26:24.680Z,98680.38
2023-03-17T10:28:50.899Z,98659.19
2023-03-17T10:31:21.026Z,98713.31
2023-03-17T10:33:49.139Z,98681.75
2023-03-17T10:36:15.762Z,98597.78
2023-03-17T10:38:48.484Z,98674.09
2023-03-17T10:41:14.714Z,98777.97
2023-03-17T10:43:42.207Z,98837.03
2023-03-17T10:46:15.913Z,98731.28
2023-03-17T10:48:42.140Z,98707.31
2023-03-17T10:51:08.632Z,98626.44
2023-03-17T10:53:38.270Z,98465.59
2023-03-17T10:56:08.490Z,98520.00
2023-03-17T10:58:47.639Z,98577.78
2023-03-17T11:01:17.561Z,98595.38
2023-03-17T11:03:43.844Z,98406.41
2023-03-17T11:06:11.165Z,98321.91
2023-03-17T11:08:47.623Z,98323.31
2023-03-17T11:11:24.386Z,98455.78
2023-03-17T11:13:50.613Z,98341.38
2023-03-17T11:16:20.966Z,98317.72
2023-03-17T11:18:47.246Z,98335.19
2023-03-17T11:21:19.859Z,98445.25
2023-03-17T11:23:52.954Z,98620.63
2023-03-17T11:26:37.444Z,98570.13
2023-03-17T11:29:22.259Z,98457.72
2023-03-17T11:31:51.816Z,98362.50
2023-03-17T11:34:23.998Z,98356.47
2023-03-17T11:37:08.755Z,98392.59
2023-03-17T11:39:34.928Z,98524.13
2023-03-17T11:42:19.595Z,98494.41
2023-03-17T11:44:51.630Z,98395.81
2023-03-17T11:47:23.576Z,98455.34
2023-03-17T11:49:52.844Z,98487.44
2023-03-17T11:52:29.294Z,98594.13
2023-03-17T11:55:14.208Z,98675.41
2023-03-17T11:57:46.215Z,98723.75
2023-03-17T12:00:18.877Z,98679.56
2023-03-17T12:02:45.753Z,98775.88
2023-03-17T12:05:12.962Z,98746.94
2023-03-17T12:07:40.737Z,98768.22
2023-03-17T12:10:06.908Z,98568.91
2023-03-17T12:12:38.600Z,98599.44
2023-03-17T12:15:05.333Z,98675.06
2023-03-17T12:17:36.024Z,98648.66
2023-03-17T12:20:12.917Z,98765.91
2023-03-17T12:22:59.385Z,98749.38
2023-03-17T12:25:27.798Z,98713.09
2023-03-17T12:27:56.614Z,98737.97
2023-03-17T12:30:43.297Z,98674.53
2023-03-17T12:33:11.632Z,98537.09
2023-03-17T12:35:37.896Z,98576.63
2023-03-17T12:38:06.459Z,98694.22
2023-03-17T12:40:34.285Z,98589.91
2023-03-17T12:43:06.279Z,98651.63
2023-03-17T12:45:38.844Z,98628.91
2023-03-17T12:48:24.023Z,98700.28
2023-03-17T12:50:57.977Z,98693.53
2023-03-17T12:53:30.429Z,98839.47
2023-03-17T12:55:58.634Z,98692.06
2023-03-17T12:58:27.803Z,98852.44
2023-03-17T13:01:00.031Z,98747.06
2023-03-17T13:03:26.816Z,98803.72
2023-03-17T13:06:13.300Z,98706.22
2023-03-17T13:08:39.870Z,98694.25
2023-03-17T13:11:16.724Z,98687.88
2023-03-17T13:13:47.327Z,98774.00
2023-03-17T13:16:29.994Z,98772.78
2023-03-17T13:19:14.547Z,98716.09
2023-03-17T13:21:44.328Z,98696.28
2023-03-17T13:24:16.509Z,98676.22
2023-03-17T13:26:56.085Z,98633.75
2023-03-17T13:29:22.992Z,98687.75
2023-03-17T13:31:49.262Z,98737.16
2023-03-17T13:34:16.506Z,98721.81
2023-03-17T13:36:54.929Z,98778.72
2023-03-17T13:39:39.828Z,98807.69
2023-03-17T13:42:17.642Z,98867.81
2023-03-17T13:44:44.484Z,98774.66
2023-03-17T13:47:16.585Z,98761.69
2023-03-17T13:49:45.915Z,98751.34
2023-03-17T13:52:13.689Z,98810.94
2023-03-17T13:54:49.991Z,98815.69
2023-03-17T13:57:22.200Z,98698.56
2023-03-17T13:59:59.695Z,98849.53
2023-03-17T14:02:26.352Z,98633.69
2023-03-17T14:05:03.123Z,98672.28
2023-03-17T14:07:30.967Z,98611.38
2023-03-17T14:09:58.207Z,98696.84
2023-03-17T14:12:36.599Z,98694.81
2023-03-17T14:15:03.785Z,98808.41
2023-03-17T14:17:32.102Z,98698.53
2023-03-17T14:20:02.032Z,98716.56
2023-03-17T14:22:28.251Z,98723.94
2023-03-17T14:24:55.200Z,98642.66
2023-03-17T14:27:22.242Z,98671.53
2023-03-17T14:29:48.474Z,98662.34
2023-03-17T14:32:15.350Z,98673.75
2023-03-17T14:34:42.240Z,98675.13
2023-03-17T14:37:09.416Z,98636.50
2023-03-17T14:39:35.618Z,98612.38
2023-03-17T14:42:03.019Z,98516.75
2023-03-17T14:44:38.917Z,98508.09
2023-03-17T14:47:05.920Z,98588.84
2023-03-17T14:49:32.178Z,98524.34
2023-03-17T14:51:58.402Z,98609.88
2023-03-17T14:54:25.773Z,98682.94
2023-03-17T14:56:52.629Z,98744.72
2023-03-17T14:59:23.505Z,98691.28
2023-03-17T15:01:52.808Z,98727.81
2023-03-17T15:04:25.935Z,98696.59
2023-03-17T15:06:53.179Z,98773.19
2023-03-17T15:09:20.565Z,98795.97
2023-03-17T15:11:46.779Z,98821.34
2023-03-17T15:14:29.280Z,98851.38
2023-03-17T15:16:55.522Z,98856.47
2023-03-17T15:19:21.830Z,98909.44
2023-03-17T15:21:48.037Z,98932.25
2023-03-17T15:24:34.221Z,98935.59
2023-03-17T15:27:12.880Z,98975.09
2023-03-17T15:29:39.102Z,98908.59
2023-03-17T15:32:14.487Z,98835.75
2023-03-17T15:34:40.733Z,98776.94
2023-03-17T15:37:13.476Z,98804.53
2023-03-17T15:39:39.693Z,98783.72
2023-03-17T15:42:05.902Z,98802.91
2023-03-17T15:44:32.130Z,98815.84
2023-03-17T15:46:58.355Z,98892.50
2023-03-17T15:49:26.864Z,98846.94
2023-03-17T15:51:53.230Z,98830.00
2023-03-17T15:54:19.426Z,98807.44
2023-03-17T15:56:45.653Z,98833.59
2023-03-17T15:59:11.864Z,98926.78
2023-03-17T16:01:38.122Z,98889.41
2023-03-17T16:04:04.861Z,98861.34
2023-03-17T16:06:31.112Z,98945.69
2023-03-17T16:08:57.312Z,99021.91
2023-03-17T16:11:23.514Z,99012.88
2023-03-17T16:13:49.710Z,98996.75
2023-03-17T16:16:17.080Z,99043.94
2023-03-17T16:18:43.296Z,99075.69
2023-03-17T16:21:09.516Z,99073.38
2023-03-17T16:23:37.351Z,99096.97
2023-03-17T16:26:14.398Z,99151.16
2023-03-17T16:28:41.581Z,99180.00
2023-03-17T16:31:17.864Z,99250.69
2023-03-17T16:33:44.135Z,99285.25
2023-03-17T16:36:13.120Z,99279.47
2023-03-17T16:38:39.342Z,99219.66
2023-03-17T16:41:09.335Z,99210.56
2023-03-17T16:43:35.994Z,99183.09
2023-03-17T16:46:02.235Z,99169.81
2023-03-17T16:48:28.550Z,99195.84
2023-03-17T16:50:55.043Z,99200.38
2023-03-17T16:53:21.275Z,99228.81
2023-03-17T16:55:47.482Z,99203.81
2023-03-17T16:58:20.747Z,99139.88
2023-03-17T17:00:47.111Z,99201.06
2023-03-17T17:03:13.483Z,99246.28
2023-03-17T17:05:40.035Z,99229.84
2023-03-17T17:08:06.404Z,99251.53
2023-03-17T17:10:32.978Z,99256.75
2023-03-17T17:12:59.382Z,99212.84
2023-03-17T17:15:25.588Z,99221.16
2023-03-17T17:17:53.072Z,99233.28
2023-03-17T17:20:20.755Z,99254.69
2023-03-17T17:22:47.165Z,99257.34
2023-03-17T17:25:13.366Z,99274.28
2023-03-17T17:27:40.162Z,99290.78
2023-03-17T17:30:06.650Z,99280.28
2023-03-17T17:32:32.885Z,99255.75
2023-03-17T17:34:59.152Z,99264.91
2023-03-17T17:37:25.365Z,99227.03
2023-03-17T17:39:51.582Z,99204.38
2023-03-17T17:42:18.005Z,99252.19
2023-03-17T17:44:44.238Z,99226.59
2023-03-17T17:47:10.832Z,99255.06
2023-03-17T17:49:37.043Z,99244.59
2023-03-17T17:52:03.479Z,99253.69
2023-03-17T17:54:29.675Z,99206.44
2023-03-17T17:56:55.867Z,99189.50
2023-03-17T17:59:22.118Z,99188.53
2023-03-17T18:01:48.344Z,99196.38
2023-03-17T18:04:14.595Z,99238.16
2023-03-17T18:06:40.861Z,99160.25
2023-03-17T18:09:07.128Z,99128.69
2023-03-17T18:11:33.347Z,99086.13
2023-03-17T18:13:59.565Z,99120.97
2023-03-17T18:16:25.823Z,99145.72
2023-03-17T18:18:52.079Z,99179.72
2023-03-17T18:21:18.291Z,99228.31
2023-03-17T18:23:47.682Z,99258.06
2023-03-17T18:26:17.068Z,99282.63
2023-03-17T18:28:43.295Z,99346.31
2023-03-17T18:31:10.173Z,99369.53
2023-03-17T18:33:36.503Z,99391.47
2023-03-17T18:36:02.859Z,99420.16
2023-03-17T18:38:29.115Z,99438.19
2023-03-17T18:40:55.352Z,99436.56
2023-03-17T18:43:21.582Z,99443.13
2023-03-17T18:45:47.810Z,99472.59
2023-03-17T18:48:14.047Z,99487.47
2023-03-17T18:50:40.252Z,99465.81
2023-03-17T18:53:06.495Z,99482.53
2023-03-17T18:55:32.708Z,99512.00
2023-03-17T18:57:58.919Z,99525.31
2023-03-17T19:00:25.145Z,99499.19
2023-03-17T19:02:51.394Z,99497.91
2023-03-17T19:05:17.654Z,99499.75
2023-03-17T19:07:43.876Z,99470.53
2023-03-17T19:10:10.432Z,99482.00
2023-03-17T19:12:36.654Z,99459.09
2023-03-17T19:15:02.908Z,99434.53
2023-03-17T19:17:29.117Z,99422.28
2023-03-17T19:19:55.328Z,99378.22
2023-03-17T19:22:21.568Z,99381.09
2023-03-17T19:24:47.795Z,99398.56
2023-03-17T19:27:14.000Z,99381.91
2023-03-17T19:29:40.217Z,99401.19
2023-03-17T19:32:06.435Z,99431.94
2023-03-17T19:34:32.646Z,99429.59
2023-03-17T19:36:58.926Z,99438.25
2023-03-17T19:39:25.164Z,99461.69
2023-03-17T19:41:51.372Z,99466.66
2023-03-17T19:44:17.587Z,99507.31
2023-03-17T19:46:43.795Z,99483.63
2023-03-17T19:49:11.089Z,99499.50
2023-03-17T19:51:37.320Z,99458.56
2023-03-17T19:54:03.535Z,99388.16
2023-03-17T19:56:29.828Z,99342.75
2023-03-17T19:58:56.045Z,99316.94
2023-03-17T20:01:22.270Z,99317.00
2023-03-17T20:03:48.593Z,99317.78
2023-03-17T20:06:14.827Z,99384.53
2023-03-17T20:08:41.224Z,99423.69
2023-03-17T20:11:07.532Z,99451.31
2023-03-17T20:13:33.945Z,99440.63
2023-03-17T20:16:00.200Z,99485.44
2023-03-17T20:18:26.440Z,99478.91
2023-03-17T20:20:52.791Z,99496.13
2023-03-17T20:23:19.054Z,99493.25
2023-03-17T20:25:45.266Z,99551.59
2023-03-17T20:28:11.651Z,99543.78
2023-03-17T20:30:38.285Z,99568.03
2023-03-17T20:33:04.943Z,99587.53
2023-03-17T20:35:31.490Z,99667.72
2023-03-17T20:37:57.737Z,99670.56
2023-03-17T20:40:24.546Z,99669.00
2023-03-17T20:42:50.782Z,99667.19
2023-03-17T20:45:16.986Z,99684.38
2023-03-17T20:47:43.179Z,99660.94
2023-03-17T20:50:09.764Z,99650.31
2023-03-17T20:52:36.120Z,99617.22
2023-03-17T20:55:02.877Z,99599.28
2023-03-17T20:57:29.090Z,99607.59
2023-03-17T20:59:55.313Z,99596.16
2023-03-17T21:02:21.630Z,99613.09
2023-03-17T21:04:47.845Z,99603.72
2023-03-17T21:07:17.806Z,99604.50
2023-03-17T21:09:44.040Z,99571.69
2023-03-17T21:12:13.991Z,99524.78
2023-03-17T21:14:40.204Z,99457.84
2023-03-17T21:17:06.450Z,99458.09
2023-03-17T21:19:32.659Z,99446.09
2023-03-17T21:21:58.859Z,99447.16
2023-03-17T21:24:28.957Z,99401.56
2023-03-17T21:26:55.156Z,99397.66
2023-03-17T21:29:21.382Z,99378.13
2023-03-17T21:31:47.653Z,99384.88
2023-03-17T21:34:13.877Z,99348.16
2023-03-17T21:36:40.099Z,99350.25
2023-03-17T21:39:06.324Z,99355.97
2023-03-17T21:41:33.361Z,99384.91
2023-03-17T21:43:59.878Z,99374.22
2023-03-17T21:46:26.073Z,99348.69
2023-03-17T21:48:52.362Z,99345.03
2023-03-17T21:51:18.557Z,99322.94
2023-03-17T21:53:44.774Z,99315.59
2023-03-17T21:56:12.536Z,99324.47
2023-03-17T21:58:38.920Z,99320.81
2023-03-17T22:01:05.214Z,99268.13
2023-03-17T22:03:31.523Z,99226.97
2023-03-17T22:05:58.041Z,99229.06
2023-03-17T22:08:24.699Z,99242.09
2023-03-17T22:10:51.122Z,99222.31
2023-03-17T22:13:17.393Z,99294.75
2023-03-17T22:15:43.600Z,99298.94
2023-03-17T22:18:09.808Z,99339.88
2023-03-17T22:20:36.032Z,99324.25
2023-03-17T22:23:02.246Z,99359.38
2023-03-17T22:25:28.475Z,99346.13
2023-03-17T22:27:54.685Z,99360.41
2023-03-17T22:30:20.911Z,99325.50
2023-03-17T22:32:47.268Z,99329.16
2023-03-17T22:35:13.560Z,99300.03
2023-03-17T22:37:39.796Z,99344.03
2023-03-17T22:40:06.352Z,99375.59
2023-03-17T22:42:32.755Z,99354.22
2023-03-17T22:44:59.060Z,99384.41
2023-03-17T22:47:25.261Z,99306.03
2023-03-17T22:49:51.514Z,99348.75
2023-03-17T22:52:17.720Z,99363.59
2023-03-17T22:54:43.940Z,99355.00
2023-03-17T22:57:10.140Z,99427.41
2023-03-17T22:59:36.353Z,99457.03
2023-03-17T23:02:02.565Z,99508.31
2023-03-17T23:04:28.775Z,99488.28
2023-03-17T23:06:54.977Z,99543.22
2023-03-17T23:09:21.197Z,99615.31
2023-03-17T23:11:47.428Z,99597.81
2023-03-17T23:14:13.664Z,99635.31
2023-03-17T23:16:39.892Z,99699.50
2023-03-17T23:19:06.102Z,99727.13
2023-03-17T23:21:33.080Z,99685.78
2023-03-17T23:23:59.493Z,99723.00
2023-03-17T23:26:25.730Z,99702.19
2023-03-17T23:28:51.944Z,99698.28
2023-03-17T23:31:18.366Z,99647.06
2023-03-17T23:33:45.426Z,99591.63
2023-03-17T23:36:11.639Z,99539.09
2023-03-17T23:38:37.842Z,99486.22
2023-03-17T23:41:04.097Z,99503.94
2023-03-17T23:43:30.294Z,99521.34
2023-03-17T23:45:56.532Z,99545.03
2023-03-17T23:48:22.746Z,99612.97
2023-03-17T23:50:50.559Z,99629.91
2023-03-17T23:53:16.782Z,99686.63
2023-03-17T23:55:43.242Z,99694.72
2023-03-17T23:58:09.455Z,99704.31
